首页
METAR-TAF:

METAR-TAF

机场 :

Dare County Regional Airport

Manteo, 北卡罗来纳州, 美国

纬度: 35-55N, 经度: 075-42W, 海拔: 4米

当前天气观测

该预报发布于50分钟前的08:55 UTC
风速9节,风向南转南东
温度 19°C
湿度 94%
气压 1012 hPa
能見度: 16.1公里
散云层高于2200英尺
阴天层高于3000英尺
毛毛雨

METAR: KMQI 200855Z AUTO 15009KT 10SM DZ SCT022 OVC030 19/18 A2989 RMK AO2 P0002 60002 T01890177

时间: 05:45 (09:45 UTC)


TAF: 丢失

超过4000个机场的气象观测和天气预报(METAR&TAF报告)。

可查询的气象台以黄色和红色小点在地图上表示。

将鼠标移到小点上方,可查看气象台名称。

然后点击查看天气观测和预报。

如需切换地图:点击带黑十字的绿色按钮放大地图;点击带横线的绿色按钮缩小地图;或者点击绿色箭头查看邻近地区的地图。


METAR-TAF: